sensor_id;sensor_type;location;lat;lon;timestamp;P1;durP1;ratioP1;P2;durP2;ratioP2
46751;SDS011;32497;48.936;9.270;2022-12-24T00:00:41;1.80;;;0.57;;
46751;SDS011;32497;48.936;9.270;2022-12-24T00:05:43;1.37;;;0.53;;
46751;SDS011;32497;48.936;9.270;2022-12-24T00:10:49;1.00;;;0.40;;
46751;SDS011;32497;48.936;9.270;2022-12-24T00:15:50;1.40;;;0.40;;
46751;SDS011;32497;48.936;9.270;2022-12-24T00:20:53;2.53;;;0.33;;
46751;SDS011;32497;48.936;9.270;2022-12-24T00:25:54;2.13;;;0.67;;
46751;SDS011;32497;48.936;9.270;2022-12-24T00:30:55;1.80;;;0.37;;
46751;SDS011;32497;48.936;9.270;2022-12-24T00:35:57;3.03;;;0.77;;
46751;SDS011;32497;48.936;9.270;2022-12-24T00:40:58;2.37;;;1.07;;
46751;SDS011;32497;48.936;9.270;2022-12-24T00:45:59;2.40;;;0.57;;
46751;SDS011;32497;48.936;9.270;2022-12-24T00:51:02;2.67;;;0.60;;
46751;SDS011;32497;48.936;9.270;2022-12-24T00:56:03;1.37;;;0.53;;
46751;SDS011;32497;48.936;9.270;2022-12-24T01:01:05;1.03;;;0.53;;
46751;SDS011;32497;48.936;9.270;2022-12-24T01:06:08;0.60;;;0.30;;
46751;SDS011;32497;48.936;9.270;2022-12-24T01:11:11;1.03;;;0.50;;
46751;SDS011;32497;48.936;9.270;2022-12-24T01:16:13;4.40;;;0.60;;
46751;SDS011;32497;48.936;9.270;2022-12-24T01:21:17;0.50;;;0.33;;
46751;SDS011;32497;48.936;9.270;2022-12-24T01:26:18;2.47;;;1.00;;
46751;SDS011;32497;48.936;9.270;2022-12-24T01:31:19;0.57;;;0.43;;
46751;SDS011;32497;48.936;9.270;2022-12-24T01:36:22;0.93;;;0.50;;
46751;SDS011;32497;48.936;9.270;2022-12-24T01:41:23;1.37;;;0.53;;
46751;SDS011;32497;48.936;9.270;2022-12-24T01:46:25;2.10;;;0.80;;
46751;SDS011;32497;48.936;9.270;2022-12-24T01:51:32;0.87;;;0.53;;
46751;SDS011;32497;48.936;9.270;2022-12-24T01:56:36;1.93;;;0.70;;
46751;SDS011;32497;48.936;9.270;2022-12-24T02:01:42;0.60;;;0.40;;
46751;SDS011;32497;48.936;9.270;2022-12-24T02:06:45;1.77;;;0.60;;
46751;SDS011;32497;48.936;9.270;2022-12-24T02:11:46;0.47;;;0.27;;
46751;SDS011;32497;48.936;9.270;2022-12-24T02:16:50;5.90;;;1.27;;
46751;SDS011;32497;48.936;9.270;2022-12-24T02:21:59;1.90;;;0.90;;
46751;SDS011;32497;48.936;9.270;2022-12-24T02:27:08;2.13;;;0.53;;
46751;SDS011;32497;48.936;9.270;2022-12-24T02:32:19;6.27;;;0.77;;
46751;SDS011;32497;48.936;9.270;2022-12-24T02:37:23;3.70;;;0.63;;
46751;SDS011;32497;48.936;9.270;2022-12-24T02:42:28;7.30;;;0.90;;
46751;SDS011;32497;48.936;9.270;2022-12-24T02:47:37;1.70;;;0.50;;
46751;SDS011;32497;48.936;9.270;2022-12-24T02:52:41;4.17;;;0.53;;
46751;SDS011;32497;48.936;9.270;2022-12-24T02:57:53;2.23;;;0.70;;
46751;SDS011;32497;48.936;9.270;2022-12-24T03:03:13;8.23;;;1.23;;
46751;SDS011;32497;48.936;9.270;2022-12-24T03:08:32;3.13;;;0.90;;
46751;SDS011;32497;48.936;9.270;2022-12-24T03:13:41;5.50;;;1.07;;
46751;SDS011;32497;48.936;9.270;2022-12-24T03:18:46;1.90;;;0.80;;
46751;SDS011;32497;48.936;9.270;2022-12-24T03:23:50;3.57;;;1.17;;
46751;SDS011;32497;48.936;9.270;2022-12-24T03:28:51;2.53;;;0.70;;
46751;SDS011;32497;48.936;9.270;2022-12-24T03:33:53;1.60;;;0.70;;
46751;SDS011;32497;48.936;9.270;2022-12-24T03:38:54;1.20;;;0.93;;
46751;SDS011;32497;48.936;9.270;2022-12-24T03:43:56;5.03;;;1.10;;
46751;SDS011;32497;48.936;9.270;2022-12-24T03:48:58;4.10;;;1.10;;
46751;SDS011;32497;48.936;9.270;2022-12-24T03:53:59;2.57;;;0.80;;
46751;SDS011;32497;48.936;9.270;2022-12-24T03:59:00;0.83;;;0.43;;
46751;SDS011;32497;48.936;9.270;2022-12-24T04:04:03;5.43;;;1.50;;
46751;SDS011;32497;48.936;9.270;2022-12-24T04:09:04;2.10;;;0.70;;
46751;SDS011;32497;48.936;9.270;2022-12-24T04:14:05;1.33;;;0.50;;
46751;SDS011;32497;48.936;9.270;2022-12-24T04:19:07;3.47;;;0.77;;
46751;SDS011;32497;48.936;9.270;2022-12-24T04:24:08;8.73;;;1.20;;
46751;SDS011;32497;48.936;9.270;2022-12-24T04:29:09;1.73;;;0.90;;
46751;SDS011;32497;48.936;9.270;2022-12-24T04:34:12;4.23;;;0.80;;
46751;SDS011;32497;48.936;9.270;2022-12-24T04:39:13;4.00;;;0.87;;
46751;SDS011;32497;48.936;9.270;2022-12-24T04:44:14;1.60;;;0.93;;
46751;SDS011;32497;48.936;9.270;2022-12-24T04:49:16;2.63;;;1.20;;
46751;SDS011;32497;48.936;9.270;2022-12-24T04:54:26;4.73;;;0.93;;
46751;SDS011;32497;48.936;9.270;2022-12-24T04:59:27;9.23;;;1.67;;
46751;SDS011;32497;48.936;9.270;2022-12-24T05:04:30;0.93;;;0.87;;
46751;SDS011;32497;48.936;9.270;2022-12-24T05:09:31;2.97;;;0.83;;
46751;SDS011;32497;48.936;9.270;2022-12-24T05:14:32;3.47;;;0.97;;
46751;SDS011;32497;48.936;9.270;2022-12-24T05:19:34;2.13;;;0.80;;
46751;SDS011;32497;48.936;9.270;2022-12-24T05:24:36;4.20;;;0.93;;
46751;SDS011;32497;48.936;9.270;2022-12-24T05:29:37;2.93;;;1.03;;
46751;SDS011;32497;48.936;9.270;2022-12-24T05:34:39;6.13;;;0.77;;
46751;SDS011;32497;48.936;9.270;2022-12-24T05:39:40;8.13;;;1.10;;
46751;SDS011;32497;48.936;9.270;2022-12-24T05:44:41;3.27;;;0.70;;
46751;SDS011;32497;48.936;9.270;2022-12-24T05:49:43;2.40;;;0.73;;
46751;SDS011;32497;48.936;9.270;2022-12-24T05:54:45;3.70;;;0.90;;
46751;SDS011;32497;48.936;9.270;2022-12-24T05:59:46;1.37;;;0.53;;
46751;SDS011;32497;48.936;9.270;2022-12-24T06:04:48;2.37;;;0.60;;
46751;SDS011;32497;48.936;9.270;2022-12-24T06:09:49;3.13;;;0.70;;
46751;SDS011;32497;48.936;9.270;2022-12-24T06:14:50;1.33;;;0.40;;
46751;SDS011;32497;48.936;9.270;2022-12-24T06:19:52;1.17;;;0.60;;
46751;SDS011;32497;48.936;9.270;2022-12-24T06:24:54;0.97;;;0.63;;
46751;SDS011;32497;48.936;9.270;2022-12-24T06:29:55;3.37;;;1.13;;
46751;SDS011;32497;48.936;9.270;2022-12-24T06:34:57;2.37;;;0.83;;
46751;SDS011;32497;48.936;9.270;2022-12-24T06:39:58;8.10;;;0.83;;
46751;SDS011;32497;48.936;9.270;2022-12-24T06:44:59;3.97;;;0.50;;
46751;SDS011;32497;48.936;9.270;2022-12-24T06:50:02;5.30;;;0.60;;
46751;SDS011;32497;48.936;9.270;2022-12-24T06:55:03;0.93;;;0.67;;
46751;SDS011;32497;48.936;9.270;2022-12-24T07:00:05;0.80;;;0.30;;
46751;SDS011;32497;48.936;9.270;2022-12-24T07:05:09;1.80;;;0.70;;
46751;SDS011;32497;48.936;9.270;2022-12-24T07:10:12;2.83;;;0.70;;
46751;SDS011;32497;48.936;9.270;2022-12-24T07:15:15;2.10;;;0.37;;
46751;SDS011;32497;48.936;9.270;2022-12-24T07:20:18;1.03;;;0.50;;
46751;SDS011;32497;48.936;9.270;2022-12-24T07:25:19;4.00;;;0.63;;
46751;SDS011;32497;48.936;9.270;2022-12-24T07:30:20;1.70;;;0.73;;
46751;SDS011;32497;48.936;9.270;2022-12-24T07:35:22;7.27;;;0.90;;
46751;SDS011;32497;48.936;9.270;2022-12-24T07:40:23;1.00;;;0.33;;
46751;SDS011;32497;48.936;9.270;2022-12-24T07:45:25;1.93;;;0.40;;
46751;SDS011;32497;48.936;9.270;2022-12-24T07:50:27;2.70;;;0.97;;
46751;SDS011;32497;48.936;9.270;2022-12-24T07:55:28;4.03;;;0.63;;
46751;SDS011;32497;48.936;9.270;2022-12-24T08:00:29;4.47;;;0.93;;
46751;SDS011;32497;48.936;9.270;2022-12-24T08:05:33;2.27;;;0.80;;
46751;SDS011;32497;48.936;9.270;2022-12-24T08:10:37;1.07;;;0.57;;
46751;SDS011;32497;48.936;9.270;2022-12-24T08:15:38;0.60;;;0.40;;
46751;SDS011;32497;48.936;9.270;2022-12-24T08:20:41;4.37;;;0.60;;
46751;SDS011;32497;48.936;9.270;2022-12-24T08:25:42;4.27;;;1.17;;
46751;SDS011;32497;48.936;9.270;2022-12-24T08:30:44;0.90;;;0.60;;
46751;SDS011;32497;48.936;9.270;2022-12-24T08:35:48;2.37;;;0.87;;
46751;SDS011;32497;48.936;9.270;2022-12-24T08:40:51;1.63;;;1.10;;
46751;SDS011;32497;48.936;9.270;2022-12-24T08:45:53;5.10;;;0.83;;
46751;SDS011;32497;48.936;9.270;2022-12-24T08:50:55;1.97;;;0.77;;
46751;SDS011;32497;48.936;9.270;2022-12-24T08:55:59;4.53;;;1.33;;
46751;SDS011;32497;48.936;9.270;2022-12-24T09:01:08;5.07;;;0.60;;
46751;SDS011;32497;48.936;9.270;2022-12-24T09:06:12;7.47;;;0.90;;
46751;SDS011;32497;48.936;9.270;2022-12-24T09:11:14;3.57;;;2.13;;
46751;SDS011;32497;48.936;9.270;2022-12-24T09:16:16;1.83;;;0.70;;
46751;SDS011;32497;48.936;9.270;2022-12-24T09:21:19;4.10;;;1.27;;
46751;SDS011;32497;48.936;9.270;2022-12-24T09:26:21;4.50;;;0.83;;
46751;SDS011;32497;48.936;9.270;2022-12-24T09:31:23;13.10;;;4.63;;
46751;SDS011;32497;48.936;9.270;2022-12-24T09:36:25;5.60;;;2.03;;
46751;SDS011;32497;48.936;9.270;2022-12-24T09:41:30;6.97;;;2.63;;
46751;SDS011;32497;48.936;9.270;2022-12-24T09:46:40;13.23;;;6.77;;
46751;SDS011;32497;48.936;9.270;2022-12-24T09:51:48;6.50;;;2.90;;
46751;SDS011;32497;48.936;9.270;2022-12-24T09:56:53;3.77;;;1.17;;
46751;SDS011;32497;48.936;9.270;2022-12-24T10:01:56;2.77;;;0.70;;
46751;SDS011;32497;48.936;9.270;2022-12-24T10:07:01;1.97;;;0.93;;
46751;SDS011;32497;48.936;9.270;2022-12-24T10:12:13;5.03;;;1.20;;
46751;SDS011;32497;48.936;9.270;2022-12-24T10:17:24;3.33;;;1.20;;
46751;SDS011;32497;48.936;9.270;2022-12-24T10:22:33;1.70;;;0.50;;
46751;SDS011;32497;48.936;9.270;2022-12-24T10:27:51;2.43;;;0.87;;
46751;SDS011;32497;48.936;9.270;2022-12-24T10:32:54;4.70;;;1.20;;
46751;SDS011;32497;48.936;9.270;2022-12-24T10:37:57;3.47;;;1.80;;
46751;SDS011;32497;48.936;9.270;2022-12-24T10:42:58;2.73;;;1.03;;
46751;SDS011;32497;48.936;9.270;2022-12-24T10:48:00;2.77;;;0.97;;
46751;SDS011;32497;48.936;9.270;2022-12-24T10:53:11;3.13;;;1.57;;
46751;SDS011;32497;48.936;9.270;2022-12-24T10:58:18;6.33;;;1.97;;
46751;SDS011;32497;48.936;9.270;2022-12-24T11:03:20;5.17;;;1.97;;
46751;SDS011;32497;48.936;9.270;2022-12-24T11:08:24;4.67;;;1.43;;
46751;SDS011;32497;48.936;9.270;2022-12-24T11:13:27;3.87;;;1.17;;
46751;SDS011;32497;48.936;9.270;2022-12-24T11:18:29;2.17;;;0.70;;
46751;SDS011;32497;48.936;9.270;2022-12-24T11:23:33;2.90;;;0.83;;
46751;SDS011;32497;48.936;9.270;2022-12-24T11:28:35;4.03;;;0.70;;
46751;SDS011;32497;48.936;9.270;2022-12-24T11:33:44;3.53;;;1.13;;
46751;SDS011;32497;48.936;9.270;2022-12-24T11:38:52;1.87;;;0.50;;
46751;SDS011;32497;48.936;9.270;2022-12-24T11:43:58;5.20;;;0.80;;
46751;SDS011;32497;48.936;9.270;2022-12-24T11:49:05;0.80;;;0.43;;
46751;SDS011;32497;48.936;9.270;2022-12-24T11:54:16;2.80;;;1.00;;
46751;SDS011;32497;48.936;9.270;2022-12-24T11:59:25;5.10;;;1.23;;
46751;SDS011;32497;48.936;9.270;2022-12-24T12:04:32;2.27;;;0.63;;
46751;SDS011;32497;48.936;9.270;2022-12-24T12:09:37;4.57;;;1.30;;
46751;SDS011;32497;48.936;9.270;2022-12-24T12:14:42;2.03;;;0.80;;
46751;SDS011;32497;48.936;9.270;2022-12-24T12:19:48;5.03;;;1.50;;
46751;SDS011;32497;48.936;9.270;2022-12-24T12:24:56;5.70;;;1.13;;
46751;SDS011;32497;48.936;9.270;2022-12-24T12:30:00;2.33;;;0.60;;
46751;SDS011;32497;48.936;9.270;2022-12-24T12:35:04;3.77;;;1.20;;
46751;SDS011;32497;48.936;9.270;2022-12-24T12:40:16;7.40;;;1.17;;
46751;SDS011;32497;48.936;9.270;2022-12-24T12:50:44;3.67;;;1.10;;
46751;SDS011;32497;48.936;9.270;2022-12-24T12:55:55;4.33;;;0.70;;
46751;SDS011;32497;48.936;9.270;2022-12-24T13:01:05;3.60;;;1.10;;
46751;SDS011;32497;48.936;9.270;2022-12-24T13:06:21;4.07;;;1.17;;
46751;SDS011;32497;48.936;9.270;2022-12-24T13:11:41;2.93;;;1.13;;
46751;SDS011;32497;48.936;9.270;2022-12-24T13:17:07;4.03;;;1.60;;
46751;SDS011;32497;48.936;9.270;2022-12-24T13:22:22;3.33;;;1.40;;
46751;SDS011;32497;48.936;9.270;2022-12-24T13:27:25;3.20;;;1.13;;
46751;SDS011;32497;48.936;9.270;2022-12-24T13:32:38;3.47;;;1.20;;
46751;SDS011;32497;48.936;9.270;2022-12-24T13:37:47;6.80;;;1.60;;
46751;SDS011;32497;48.936;9.270;2022-12-24T13:43:06;2.30;;;1.17;;
46751;SDS011;32497;48.936;9.270;2022-12-24T13:48:12;2.97;;;1.20;;
46751;SDS011;32497;48.936;9.270;2022-12-24T13:53:32;2.77;;;0.83;;
46751;SDS011;32497;48.936;9.270;2022-12-24T13:58:42;1.87;;;0.80;;
46751;SDS011;32497;48.936;9.270;2022-12-24T14:03:46;2.90;;;1.23;;
46751;SDS011;32497;48.936;9.270;2022-12-24T14:08:50;3.40;;;0.83;;
46751;SDS011;32497;48.936;9.270;2022-12-24T14:19:27;3.03;;;1.23;;
46751;SDS011;32497;48.936;9.270;2022-12-24T14:24:33;6.30;;;1.20;;
46751;SDS011;32497;48.936;9.270;2022-12-24T14:29:39;2.03;;;1.20;;
46751;SDS011;32497;48.936;9.270;2022-12-24T14:35:02;2.77;;;1.40;;
46751;SDS011;32497;48.936;9.270;2022-12-24T14:40:05;5.70;;;1.50;;
46751;SDS011;32497;48.936;9.270;2022-12-24T14:45:14;2.97;;;0.83;;
46751;SDS011;32497;48.936;9.270;2022-12-24T14:50:31;1.67;;;0.73;;
46751;SDS011;32497;48.936;9.270;2022-12-24T14:55:40;7.63;;;1.50;;
46751;SDS011;32497;48.936;9.270;2022-12-24T15:00:44;3.80;;;1.10;;
46751;SDS011;32497;48.936;9.270;2022-12-24T15:05:47;5.30;;;1.97;;
46751;SDS011;32497;48.936;9.270;2022-12-24T15:10:51;8.37;;;2.30;;
46751;SDS011;32497;48.936;9.270;2022-12-24T15:15:55;5.20;;;1.37;;
46751;SDS011;32497;48.936;9.270;2022-12-24T15:20:58;7.07;;;2.03;;
46751;SDS011;32497;48.936;9.270;2022-12-24T15:26:13;5.37;;;2.00;;
46751;SDS011;32497;48.936;9.270;2022-12-24T15:31:23;3.27;;;1.37;;
46751;SDS011;32497;48.936;9.270;2022-12-24T15:36:27;6.37;;;1.43;;
46751;SDS011;32497;48.936;9.270;2022-12-24T15:41:34;3.27;;;0.97;;
46751;SDS011;32497;48.936;9.270;2022-12-24T15:46:38;3.17;;;1.17;;
46751;SDS011;32497;48.936;9.270;2022-12-24T15:51:39;3.27;;;1.20;;
46751;SDS011;32497;48.936;9.270;2022-12-24T15:56:40;8.20;;;1.50;;
46751;SDS011;32497;48.936;9.270;2022-12-24T16:01:44;4.90;;;1.80;;
46751;SDS011;32497;48.936;9.270;2022-12-24T16:06:50;3.67;;;1.73;;
46751;SDS011;32497;48.936;9.270;2022-12-24T16:11:53;2.50;;;1.47;;
46751;SDS011;32497;48.936;9.270;2022-12-24T16:16:56;6.50;;;1.73;;
46751;SDS011;32497;48.936;9.270;2022-12-24T16:21:58;5.87;;;1.57;;
46751;SDS011;32497;48.936;9.270;2022-12-24T16:27:00;8.90;;;1.90;;
46751;SDS011;32497;48.936;9.270;2022-12-24T16:32:03;13.97;;;2.40;;
46751;SDS011;32497;48.936;9.270;2022-12-24T16:37:04;2.83;;;1.73;;
46751;SDS011;32497;48.936;9.270;2022-12-24T16:42:05;3.80;;;1.20;;
46751;SDS011;32497;48.936;9.270;2022-12-24T16:47:09;6.57;;;1.57;;
46751;SDS011;32497;48.936;9.270;2022-12-24T16:52:14;5.73;;;2.07;;
46751;SDS011;32497;48.936;9.270;2022-12-24T16:57:16;4.90;;;1.67;;
46751;SDS011;32497;48.936;9.270;2022-12-24T17:02:20;2.87;;;1.20;;
46751;SDS011;32497;48.936;9.270;2022-12-24T17:07:22;8.23;;;1.87;;
46751;SDS011;32497;48.936;9.270;2022-12-24T17:12:23;3.47;;;1.50;;
46751;SDS011;32497;48.936;9.270;2022-12-24T17:17:26;6.77;;;1.47;;
46751;SDS011;32497;48.936;9.270;2022-12-24T17:22:28;4.73;;;1.50;;
46751;SDS011;32497;48.936;9.270;2022-12-24T17:27:29;3.70;;;1.40;;
46751;SDS011;32497;48.936;9.270;2022-12-24T17:32:32;5.40;;;1.73;;
46751;SDS011;32497;48.936;9.270;2022-12-24T17:37:33;5.07;;;2.00;;
46751;SDS011;32497;48.936;9.270;2022-12-24T17:42:34;5.23;;;2.00;;
46751;SDS011;32497;48.936;9.270;2022-12-24T17:47:37;12.03;;;3.27;;
46751;SDS011;32497;48.936;9.270;2022-12-24T17:52:38;8.17;;;2.90;;
46751;SDS011;32497;48.936;9.270;2022-12-24T17:57:39;6.13;;;2.83;;
46751;SDS011;32497;48.936;9.270;2022-12-24T18:02:41;7.90;;;2.23;;
46751;SDS011;32497;48.936;9.270;2022-12-24T18:07:42;5.53;;;2.73;;
46751;SDS011;32497;48.936;9.270;2022-12-24T18:12:43;8.40;;;4.17;;
46751;SDS011;32497;48.936;9.270;2022-12-24T18:17:49;8.30;;;3.20;;
46751;SDS011;32497;48.936;9.270;2022-12-24T18:22:51;7.87;;;3.10;;
46751;SDS011;32497;48.936;9.270;2022-12-24T18:27:52;9.13;;;2.70;;
46751;SDS011;32497;48.936;9.270;2022-12-24T18:32:54;9.43;;;2.57;;
46751;SDS011;32497;48.936;9.270;2022-12-24T18:37:55;4.93;;;2.73;;
46751;SDS011;32497;48.936;9.270;2022-12-24T18:42:56;5.00;;;2.50;;
46751;SDS011;32497;48.936;9.270;2022-12-24T18:47:59;5.53;;;2.50;;
46751;SDS011;32497;48.936;9.270;2022-12-24T18:53:00;5.73;;;2.27;;
46751;SDS011;32497;48.936;9.270;2022-12-24T18:58:01;6.57;;;2.53;;
46751;SDS011;32497;48.936;9.270;2022-12-24T19:03:03;4.97;;;2.27;;
46751;SDS011;32497;48.936;9.270;2022-12-24T19:08:05;5.93;;;2.73;;
46751;SDS011;32497;48.936;9.270;2022-12-24T19:13:06;5.80;;;2.50;;
46751;SDS011;32497;48.936;9.270;2022-12-24T19:18:08;5.93;;;2.40;;
46751;SDS011;32497;48.936;9.270;2022-12-24T19:23:09;5.93;;;2.47;;
46751;SDS011;32497;48.936;9.270;2022-12-24T19:28:10;9.80;;;2.47;;
46751;SDS011;32497;48.936;9.270;2022-12-24T19:33:13;5.17;;;1.90;;
46751;SDS011;32497;48.936;9.270;2022-12-24T19:38:14;3.83;;;2.03;;
46751;SDS011;32497;48.936;9.270;2022-12-24T19:43:15;6.10;;;2.23;;
46751;SDS011;32497;48.936;9.270;2022-12-24T19:48:17;8.07;;;2.00;;
46751;SDS011;32497;48.936;9.270;2022-12-24T19:53:18;3.50;;;2.30;;
46751;SDS011;32497;48.936;9.270;2022-12-24T19:58:19;5.33;;;1.97;;
46751;SDS011;32497;48.936;9.270;2022-12-24T20:03:22;5.60;;;1.93;;
46751;SDS011;32497;48.936;9.270;2022-12-24T20:08:23;4.33;;;1.93;;
46751;SDS011;32497;48.936;9.270;2022-12-24T20:13:24;3.40;;;1.57;;
46751;SDS011;32497;48.936;9.270;2022-12-24T20:18:26;2.27;;;1.67;;
46751;SDS011;32497;48.936;9.270;2022-12-24T20:23:28;4.67;;;2.07;;
46751;SDS011;32497;48.936;9.270;2022-12-24T20:28:30;3.90;;;1.63;;
46751;SDS011;32497;48.936;9.270;2022-12-24T20:33:35;2.70;;;1.30;;
46751;SDS011;32497;48.936;9.270;2022-12-24T20:38:36;5.23;;;1.83;;
46751;SDS011;32497;48.936;9.270;2022-12-24T20:43:37;3.53;;;1.70;;
46751;SDS011;32497;48.936;9.270;2022-12-24T20:48:40;3.30;;;1.80;;
46751;SDS011;32497;48.936;9.270;2022-12-24T20:53:41;2.30;;;1.47;;
46751;SDS011;32497;48.936;9.270;2022-12-24T20:58:43;2.70;;;1.20;;
46751;SDS011;32497;48.936;9.270;2022-12-24T21:03:46;4.70;;;2.20;;
46751;SDS011;32497;48.936;9.270;2022-12-24T21:08:47;2.43;;;1.43;;
46751;SDS011;32497;48.936;9.270;2022-12-24T21:13:49;3.70;;;1.57;;
46751;SDS011;32497;48.936;9.270;2022-12-24T21:18:51;2.57;;;1.27;;
46751;SDS011;32497;48.936;9.270;2022-12-24T21:23:52;3.83;;;1.53;;
46751;SDS011;32497;48.936;9.270;2022-12-24T21:28:54;2.00;;;1.03;;
46751;SDS011;32497;48.936;9.270;2022-12-24T21:33:56;3.73;;;1.30;;
46751;SDS011;32497;48.936;9.270;2022-12-24T21:38:58;2.63;;;1.10;;
46751;SDS011;32497;48.936;9.270;2022-12-24T21:43:59;2.57;;;1.13;;
46751;SDS011;32497;48.936;9.270;2022-12-24T21:49:02;1.73;;;1.00;;
46751;SDS011;32497;48.936;9.270;2022-12-24T21:54:03;1.27;;;0.90;;
46751;SDS011;32497;48.936;9.270;2022-12-24T21:59:05;2.20;;;1.10;;
46751;SDS011;32497;48.936;9.270;2022-12-24T22:04:07;2.67;;;1.23;;
46751;SDS011;32497;48.936;9.270;2022-12-24T22:09:08;3.33;;;0.93;;
46751;SDS011;32497;48.936;9.270;2022-12-24T22:14:10;1.60;;;0.90;;
46751;SDS011;32497;48.936;9.270;2022-12-24T22:19:12;1.63;;;1.07;;
46751;SDS011;32497;48.936;9.270;2022-12-24T22:24:13;1.97;;;1.07;;
46751;SDS011;32497;48.936;9.270;2022-12-24T22:29:14;2.03;;;0.87;;
46751;SDS011;32497;48.936;9.270;2022-12-24T22:34:17;1.07;;;0.90;;
46751;SDS011;32497;48.936;9.270;2022-12-24T22:39:18;1.20;;;0.80;;
46751;SDS011;32497;48.936;9.270;2022-12-24T22:44:19;1.40;;;0.90;;
46751;SDS011;32497;48.936;9.270;2022-12-24T22:49:21;2.43;;;0.73;;
46751;SDS011;32497;48.936;9.270;2022-12-24T22:54:22;2.00;;;0.80;;
46751;SDS011;32497;48.936;9.270;2022-12-24T22:59:24;0.80;;;0.60;;
46751;SDS011;32497;48.936;9.270;2022-12-24T23:04:26;1.63;;;0.97;;
46751;SDS011;32497;48.936;9.270;2022-12-24T23:09:27;0.97;;;0.50;;
46751;SDS011;32497;48.936;9.270;2022-12-24T23:14:28;1.77;;;0.77;;
46751;SDS011;32497;48.936;9.270;2022-12-24T23:19:31;0.80;;;0.57;;
46751;SDS011;32497;48.936;9.270;2022-12-24T23:24:32;1.97;;;0.90;;
46751;SDS011;32497;48.936;9.270;2022-12-24T23:29:34;0.67;;;0.50;;
46751;SDS011;32497;48.936;9.270;2022-12-24T23:34:36;1.47;;;0.80;;
46751;SDS011;32497;48.936;9.270;2022-12-24T23:39:37;2.63;;;0.70;;
46751;SDS011;32497;48.936;9.270;2022-12-24T23:44:38;1.37;;;0.70;;
46751;SDS011;32497;48.936;9.270;2022-12-24T23:49:41;1.73;;;0.77;;
46751;SDS011;32497;48.936;9.270;2022-12-24T23:54:42;1.50;;;0.60;;
46751;SDS011;32497;48.936;9.270;2022-12-24T23:59:43;1.73;;;0.50;;
